Time;durP1;ratioP1;P1;durP2;ratioP2;P2;SDS_P1;SDS_P2;PMS_P1;PMS_P2;Temp;Humidity;BMP_temperature;BMP_pressure;BME280_temperature;BME280_humidity;BME280_pressure;Samples;Min_cycle;Max_cycle;Signal;HPM_P1;HPM_P2
2022/01/25 00:09:16;;;;;;;44.92;28.70;;;;;;;;;;5060457;28;20053;-82
2022/01/25 00:25:09;;;;;;;48.25;28.50;;;;;;;;;;5063317;28;20364;-82
2022/01/25 00:27:42;;;;;;;49.13;29.08;;;;;;;;;;5045680;28;20468;-84
2022/01/25 00:30:41;;;;;;;47.90;28.65;;;;;;;;;;5077819;28;20094;-82
2022/01/25 00:33:07;;;;;;;42.60;26.60;;;;;;;;;;5060817;28;20045;-83
2022/01/25 00:35:33;;;;;;;41.92;27.35;;;;;;;;;;5044486;28;20080;-81
2022/01/25 00:37:59;;;;;;;44.25;27.02;;;;;;;;;;5067259;28;20060;-84
2022/01/25 00:40:25;;;;;;;41.65;27.58;;;;;;;;;;5046715;28;20059;-83
2022/01/25 00:42:51;;;;;;;45.53;27.75;;;;;;;;;;5062282;28;20044;-84
2022/01/25 00:45:19;;;;;;;42.92;26.65;;;;;;;;;;5079264;28;20040;-83
2022/01/25 00:47:49;;;;;;;42.30;25.85;;;;;;;;;;5065883;28;20132;-83
2022/01/25 00:50:15;;;;;;;42.83;27.70;;;;;;;;;;5049738;28;20040;-83
2022/01/25 00:55:13;;;;;;;45.38;26.50;;;;;;;;;;5067585;28;20129;-82
2022/01/25 00:57:39;;;;;;;47.85;27.98;;;;;;;;;;5053660;28;20036;-82
2022/01/25 01:00:06;;;;;;;46.15;27.65;;;;;;;;;;5066445;28;20045;-84
2022/01/25 01:02:32;;;;;;;48.35;27.90;;;;;;;;;;5047136;28;20040;-83
2022/01/25 01:04:58;;;;;;;46.65;28.20;;;;;;;;;;5065297;28;20535;-83
2022/01/25 01:07:25;;;;;;;44.55;27.42;;;;;;;;;;5048651;28;20040;-83
2022/01/25 01:09:53;;;;;;;42.85;27.83;;;;;;;;;;5067048;28;20056;-83
2022/01/25 01:12:57;;;;;;;49.08;28.05;;;;;;;;;;5066283;28;20043;-85
2022/01/25 01:29:06;;;;;;;52.00;30.48;;;;;;;;;;5064711;28;20060;-83
2022/01/25 01:34:26;;;;;;;51.25;30.70;;;;;;;;;;5063233;28;20098;-82
2022/01/25 01:42:32;;;;;;;50.42;29.95;;;;;;;;;;5063316;28;20049;-82
2022/01/25 01:47:38;;;;;;;54.03;31.58;;;;;;;;;;5063853;28;20056;-82
2022/01/25 01:50:10;;;;;;;50.10;31.50;;;;;;;;;;5049197;28;20087;-81
2022/01/25 01:52:36;;;;;;;53.85;31.40;;;;;;;;;;5064352;28;20045;-82
2022/01/25 01:55:03;;;;;;;53.72;32.78;;;;;;;;;;5046860;28;20055;-82
2022/01/25 01:57:29;;;;;;;53.53;31.70;;;;;;;;;;5062801;28;20033;-80
2022/01/25 01:59:55;;;;;;;55.28;32.55;;;;;;;;;;5046213;28;20093;-83
2022/01/25 02:02:21;;;;;;;53.78;32.70;;;;;;;;;;5064883;28;20052;-83
2022/01/25 02:04:47;;;;;;;52.10;33.55;;;;;;;;;;5046180;28;20037;-83
2022/01/25 02:07:13;;;;;;;55.63;33.65;;;;;;;;;;5066613;28;20476;-83
2022/01/25 02:09:39;;;;;;;56.45;34.65;;;;;;;;;;5064849;28;20049;-82
2022/01/25 02:12:06;;;;;;;59.65;34.28;;;;;;;;;;5062172;28;20075;-83
2022/01/25 02:14:35;;;;;;;53.42;33.25;;;;;;;;;;5044974;28;20463;-82
2022/01/25 02:17:26;;;;;;;51.42;32.92;;;;;;;;;;5062044;28;20033;-82
2022/01/25 02:22:55;;;;;;;54.72;33.72;;;;;;;;;;5064310;28;20071;-84
2022/01/25 02:25:21;;;;;;;57.83;31.95;;;;;;;;;;5062326;28;20103;-84
2022/01/25 02:27:47;;;;;;;51.85;30.92;;;;;;;;;;5063296;28;20123;-83
2022/01/25 02:30:13;;;;;;;53.78;32.40;;;;;;;;;;5063076;28;20060;-85
2022/01/25 02:32:39;;;;;;;56.20;33.13;;;;;;;;;;5045292;28;20361;-83
2022/01/25 02:35:05;;;;;;;56.83;32.15;;;;;;;;;;5044529;28;20095;-83
2022/01/25 02:37:32;;;;;;;51.92;32.22;;;;;;;;;;5045289;28;20384;-85
2022/01/25 02:39:58;;;;;;;53.78;32.70;;;;;;;;;;5062421;28;20429;-83
2022/01/25 02:42:24;;;;;;;53.72;32.58;;;;;;;;;;5046231;28;20096;-81
2022/01/25 02:44:50;;;;;;;55.50;32.20;;;;;;;;;;5047672;28;20076;-83
2022/01/25 02:50:01;;;;;;;53.85;32.10;;;;;;;;;;5061469;28;20040;-81
2022/01/25 02:52:27;;;;;;;55.88;31.75;;;;;;;;;;5061408;28;20056;-81
2022/01/25 02:54:53;;;;;;;56.20;32.40;;;;;;;;;;5061906;28;20049;-81
2022/01/25 02:57:19;;;;;;;56.78;32.35;;;;;;;;;;5045105;28;20041;-83
2022/01/25 02:59:45;;;;;;;60.00;34.28;;;;;;;;;;5061364;28;20063;-81
2022/01/25 03:02:11;;;;;;;54.65;32.10;;;;;;;;;;5061434;28;20105;-82
2022/01/25 03:04:37;;;;;;;57.08;33.55;;;;;;;;;;5045567;28;20036;-82
2022/01/25 03:07:04;;;;;;;56.97;32.10;;;;;;;;;;5044522;28;20044;-83
2022/01/25 03:09:30;;;;;;;54.92;33.05;;;;;;;;;;5043065;28;20202;-80
2022/01/25 03:11:57;;;;;;;53.92;32.15;;;;;;;;;;5061700;28;20041;-83
2022/01/25 03:14:26;;;;;;;53.90;32.25;;;;;;;;;;5061234;28;20449;-82
2022/01/25 03:17:07;;;;;;;57.50;33.78;;;;;;;;;;5059719;28;20041;-81
2022/01/25 03:22:13;;;;;;;52.28;31.40;;;;;;;;;;5060181;28;20455;-81
2022/01/25 03:24:39;;;;;;;56.05;32.20;;;;;;;;;;5045055;28;20045;-82
2022/01/25 03:27:05;;;;;;;55.35;32.72;;;;;;;;;;5061896;28;20051;-82
2022/01/25 03:29:31;;;;;;;50.63;31.77;;;;;;;;;;5062935;28;20097;-83
2022/01/25 03:31:57;;;;;;;56.85;31.50;;;;;;;;;;5048517;28;20036;-82
2022/01/25 03:34:23;;;;;;;51.55;31.75;;;;;;;;;;5064707;28;20065;-82
2022/01/25 03:36:49;;;;;;;53.08;31.10;;;;;;;;;;5046589;28;20076;-82
2022/01/25 03:39:15;;;;;;;52.30;30.98;;;;;;;;;;5046452;28;20036;-83
2022/01/25 03:41:41;;;;;;;53.28;32.25;;;;;;;;;;5047132;28;20468;-82
2022/01/25 03:44:07;;;;;;;46.80;30.13;;;;;;;;;;5047791;28;20052;-80
2022/01/25 03:51:53;;;;;;;51.65;30.35;;;;;;;;;;5065614;28;20092;-82
2022/01/25 03:54:19;;;;;;;47.17;29.58;;;;;;;;;;5061649;28;20064;-82
2022/01/25 03:56:45;;;;;;;50.35;30.48;;;;;;;;;;5061154;28;20376;-83
2022/01/25 03:59:11;;;;;;;50.20;30.48;;;;;;;;;;5044207;28;20048;-83
2022/01/25 04:01:37;;;;;;;53.03;31.83;;;;;;;;;;5060954;28;20040;-81
2022/01/25 04:04:08;;;;;;;54.45;31.92;;;;;;;;;;5059746;28;20037;-83
2022/01/25 04:06:35;;;;;;;55.13;32.83;;;;;;;;;;5044708;28;20044;-83
2022/01/25 04:09:04;;;;;;;57.30;32.15;;;;;;;;;;5078919;28;20044;-83
2022/01/25 04:11:30;;;;;;;57.83;33.20;;;;;;;;;;5060847;28;20205;-83
2022/01/25 04:13:57;;;;;;;52.83;31.73;;;;;;;;;;5043842;28;20037;-84
2022/01/25 04:16:29;;;;;;;51.20;31.25;;;;;;;;;;5043717;28;20135;-83
2022/01/25 04:24:44;;;;;;;56.75;33.25;;;;;;;;;;5061705;28;20368;-82
2022/01/25 04:26:55;;;;;;;60.25;34.20;;;;;;;;;;5063934;28;20118;-81
2022/01/25 04:29:21;;;;;;;54.80;31.77;;;;;;;;;;5064735;28;20459;-82
2022/01/25 04:31:47;;;;;;;55.13;32.40;;;;;;;;;;5065201;28;20058;-82
2022/01/25 04:34:27;;;;;;;58.50;33.50;;;;;;;;;;5067094;28;20037;-82
2022/01/25 04:58:23;;;;;;;58.13;34.00;;;;;;;;;;5062928;28;20041;-81
2022/01/25 05:00:50;;;;;;;53.75;34.40;;;;;;;;;;5063975;28;20052;-82
2022/01/25 05:03:25;;;;;;;52.83;32.53;;;;;;;;;;5064764;28;20037;-83
2022/01/25 05:08:32;;;;;;;50.05;32.08;;;;;;;;;;5065617;28;20100;-84
2022/01/25 05:11:07;;;;;;;53.95;33.17;;;;;;;;;;5048793;28;20033;-82
2022/01/25 05:13:50;;;;;;;55.80;33.55;;;;;;;;;;5049146;28;20108;-84
2022/01/25 05:18:48;;;;;;;57.80;32.92;;;;;;;;;;5064329;28;20142;-84
2022/01/25 05:23:58;;;;;;;61.63;34.60;;;;;;;;;;5061726;28;20360;-80
2022/01/25 05:26:25;;;;;;;57.05;36.00;;;;;;;;;;5062362;28;20175;-77
2022/01/25 05:28:50;;;;;;;57.90;35.60;;;;;;;;;;5042745;28;20033;-78
2022/01/25 05:31:16;;;;;;;67.63;37.17;;;;;;;;;;5050166;28;20031;-78
2022/01/25 05:33:42;;;;;;;60.25;37.10;;;;;;;;;;5062964;28;20033;-78
2022/01/25 05:36:08;;;;;;;57.72;34.35;;;;;;;;;;5058905;28;20049;-79
2022/01/25 05:38:34;;;;;;;57.92;34.15;;;;;;;;;;5041261;28;20037;-79
2022/01/25 05:41:03;;;;;;;56.80;33.58;;;;;;;;;;5061309;28;20132;-80
2022/01/25 05:46:18;;;;;;;62.95;35.60;;;;;;;;;;5062137;28;20045;-79
2022/01/25 05:48:45;;;;;;;68.85;37.25;;;;;;;;;;5047270;28;20060;-79
2022/01/25 05:51:11;;;;;;;63.15;34.60;;;;;;;;;;5044466;28;20075;-78
2022/01/25 05:53:37;;;;;;;59.97;35.38;;;;;;;;;;5061828;28;20032;-79
2022/01/25 05:56:04;;;;;;;62.75;36.38;;;;;;;;;;5061864;28;20345;-79
2022/01/25 05:58:30;;;;;;;58.67;33.53;;;;;;;;;;5062111;28;20082;-78
2022/01/25 06:00:56;;;;;;;59.00;34.08;;;;;;;;;;5062267;28;20033;-78
2022/01/25 06:03:22;;;;;;;59.80;35.88;;;;;;;;;;5062885;28;20045;-79
2022/01/25 06:05:48;;;;;;;62.75;35.25;;;;;;;;;;5044557;28;20123;-79
2022/01/25 06:08:14;;;;;;;61.85;35.70;;;;;;;;;;5076015;28;20129;-79
2022/01/25 06:10:40;;;;;;;56.95;34.83;;;;;;;;;;5065635;28;20827;-79
2022/01/25 06:13:06;;;;;;;63.33;35.50;;;;;;;;;;5061632;28;20044;-78
2022/01/25 06:15:32;;;;;;;55.95;33.50;;;;;;;;;;5044818;28;20055;-78
2022/01/25 06:17:58;;;;;;;59.92;34.28;;;;;;;;;;5072061;28;20123;-77
2022/01/25 06:20:24;;;;;;;61.85;35.70;;;;;;;;;;5064232;28;20041;-78
2022/01/25 06:22:50;;;;;;;61.60;35.40;;;;;;;;;;5059788;28;20037;-78
2022/01/25 06:25:16;;;;;;;62.15;35.00;;;;;;;;;;5047483;28;20052;-80
2022/01/25 06:27:43;;;;;;;57.00;35.25;;;;;;;;;;5072492;28;20040;-79
2022/01/25 06:30:09;;;;;;;59.58;35.53;;;;;;;;;;5063799;28;20069;-79
2022/01/25 06:32:36;;;;;;;64.40;37.30;;;;;;;;;;5061572;28;20219;-79
2022/01/25 06:35:02;;;;;;;64.82;35.50;;;;;;;;;;5045141;28;20041;-79
2022/01/25 06:37:28;;;;;;;63.95;36.53;;;;;;;;;;5066518;28;20037;-79
2022/01/25 06:39:55;;;;;;;62.65;35.97;;;;;;;;;;5044261;28;20037;-79
2022/01/25 06:42:21;;;;;;;60.72;35.80;;;;;;;;;;5060150;28;20132;-80
2022/01/25 06:44:47;;;;;;;65.22;35.90;;;;;;;;;;5042954;28;20044;-79
2022/01/25 06:47:13;;;;;;;61.70;36.65;;;;;;;;;;5044036;28;20043;-79
2022/01/25 06:49:39;;;;;;;58.83;36.30;;;;;;;;;;5060706;28;20084;-80
2022/01/25 06:52:06;;;;;;;54.95;32.90;;;;;;;;;;5077189;28;20048;-79
2022/01/25 06:54:32;;;;;;;57.58;34.25;;;;;;;;;;5076454;28;20052;-80
2022/01/25 06:56:58;;;;;;;60.65;35.38;;;;;;;;;;5060788;28;20041;-78
2022/01/25 06:59:24;;;;;;;61.67;34.95;;;;;;;;;;5060543;28;20037;-79
2022/01/25 07:01:50;;;;;;;60.72;34.25;;;;;;;;;;5050966;28;20059;-78
2022/01/25 07:04:16;;;;;;;54.25;33.75;;;;;;;;;;5071401;28;20120;-79
2022/01/25 07:06:42;;;;;;;59.85;34.10;;;;;;;;;;5065117;28;20047;-78
2022/01/25 07:09:08;;;;;;;55.25;33.60;;;;;;;;;;5040976;28;20368;-79
2022/01/25 07:11:34;;;;;;;50.55;33.67;;;;;;;;;;5040184;28;20040;-77
2022/01/25 07:14:00;;;;;;;56.95;32.95;;;;;;;;;;5055138;28;20040;-78
2022/01/25 07:16:26;;;;;;;59.22;34.55;;;;;;;;;;5039858;28;20036;-77
2022/01/25 07:18:52;;;;;;;56.08;34.35;;;;;;;;;;5055215;28;20444;-77
2022/01/25 07:21:18;;;;;;;57.30;34.97;;;;;;;;;;5055331;28;20044;-77
2022/01/25 07:23:44;;;;;;;60.50;35.38;;;;;;;;;;5038190;28;20403;-77
2022/01/25 07:26:10;;;;;;;62.22;35.42;;;;;;;;;;5054477;28;20051;-78
2022/01/25 07:28:36;;;;;;;60.47;34.42;;;;;;;;;;5037817;28;20098;-77
2022/01/25 07:31:03;;;;;;;59.95;34.22;;;;;;;;;;5054737;28;20420;-77
2022/01/25 07:33:29;;;;;;;60.55;34.13;;;;;;;;;;5037566;28;20441;-77
2022/01/25 07:35:55;;;;;;;58.35;35.28;;;;;;;;;;5037541;28;20471;-77
2022/01/25 07:38:21;;;;;;;59.70;34.88;;;;;;;;;;5055384;28;20044;-77
2022/01/25 07:40:47;;;;;;;66.15;35.65;;;;;;;;;;5038582;28;20040;-78
2022/01/25 07:43:13;;;;;;;62.38;35.55;;;;;;;;;;5055227;28;20052;-78
2022/01/25 07:45:39;;;;;;;67.13;34.65;;;;;;;;;;5072341;28;20326;-78
2022/01/25 07:48:05;;;;;;;57.58;34.25;;;;;;;;;;5065365;28;20040;-78
2022/01/25 07:50:32;;;;;;;58.50;36.10;;;;;;;;;;5054971;28;20041;-78
2022/01/25 07:52:58;;;;;;;60.25;35.58;;;;;;;;;;5044286;28;20037;-79
2022/01/25 07:55:24;;;;;;;59.47;36.15;;;;;;;;;;5042349;28;20040;-79
2022/01/25 07:57:50;;;;;;;62.58;35.35;;;;;;;;;;5058060;28;20047;-78
2022/01/25 08:00:16;;;;;;;59.60;35.30;;;;;;;;;;5049987;28;20346;-77
2022/01/25 08:02:44;;;;;;;61.05;35.55;;;;;;;;;;5051961;28;20120;-79
2022/01/25 08:05:10;;;;;;;61.97;34.65;;;;;;;;;;5040910;28;20040;-79
2022/01/25 08:07:35;;;;;;;65.68;36.38;;;;;;;;;;5058621;28;20037;-78
2022/01/25 08:10:01;;;;;;;67.35;37.50;;;;;;;;;;5069196;28;20351;-78
2022/01/25 08:12:29;;;;;;;66.38;36.28;;;;;;;;;;5077398;28;20108;-77
2022/01/25 08:14:58;;;;;;;66.13;36.97;;;;;;;;;;5058593;28;20067;-76
2022/01/25 08:17:24;;;;;;;64.72;35.97;;;;;;;;;;5059162;28;20043;-78
2022/01/25 08:19:49;;;;;;;61.50;34.85;;;;;;;;;;5076361;28;20340;-76
2022/01/25 08:22:18;;;;;;;66.15;35.30;;;;;;;;;;5074699;28;20036;-77
2022/01/25 08:24:44;;;;;;;63.72;35.58;;;;;;;;;;5076973;28;20053;-78
2022/01/25 08:27:11;;;;;;;76.03;36.95;;;;;;;;;;5078881;28;20429;-78
2022/01/25 08:29:37;;;;;;;59.15;34.42;;;;;;;;;;5077345;28;20463;-77
2022/01/25 08:32:03;;;;;;;65.75;36.05;;;;;;;;;;5074581;28;20123;-77
2022/01/25 08:34:29;;;;;;;58.00;33.63;;;;;;;;;;5080745;28;20032;-76
2022/01/25 08:36:55;;;;;;;63.15;35.28;;;;;;;;;;5081311;28;20044;-77
2022/01/25 08:39:23;;;;;;;64.22;36.33;;;;;;;;;;5076358;28;20041;-78
2022/01/25 08:41:49;;;;;;;64.45;35.95;;;;;;;;;;5076147;28;20068;-77
2022/01/25 08:44:15;;;;;;;66.75;35.88;;;;;;;;;;5076340;28;20448;-77
2022/01/25 08:46:41;;;;;;;62.28;35.83;;;;;;;;;;5074255;28;20049;-77
2022/01/25 08:49:07;;;;;;;64.30;35.55;;;;;;;;;;5060384;28;20093;-77
2022/01/25 08:51:33;;;;;;;64.50;36.63;;;;;;;;;;5075239;28;20082;-77
2022/01/25 08:53:59;;;;;;;63.47;36.47;;;;;;;;;;5074448;28;20048;-76
2022/01/25 08:56:25;;;;;;;63.72;35.35;;;;;;;;;;5074453;28;20050;-78
2022/01/25 08:58:51;;;;;;;65.68;37.00;;;;;;;;;;5074698;28;20531;-78
2022/01/25 09:01:17;;;;;;;61.70;36.65;;;;;;;;;;5077744;28;20040;-78
2022/01/25 09:03:43;;;;;;;62.42;36.08;;;;;;;;;;5061470;28;20044;-78
2022/01/25 09:06:09;;;;;;;71.13;37.00;;;;;;;;;;5078209;28;20057;-78
2022/01/25 09:08:35;;;;;;;67.78;37.13;;;;;;;;;;5081102;28;20052;-78
2022/01/25 09:11:04;;;;;;;64.10;36.17;;;;;;;;;;5081264;28;20067;-78
2022/01/25 09:13:30;;;;;;;61.35;37.38;;;;;;;;;;5066996;28;20123;-79
2022/01/25 09:15:56;;;;;;;65.13;36.28;;;;;;;;;;5068298;28;20051;-79
2022/01/25 09:18:22;;;;;;;59.67;35.35;;;;;;;;;;5064371;28;20119;-77
2022/01/25 09:20:48;;;;;;;66.05;37.17;;;;;;;;;;5083783;28;20079;-78
2022/01/25 09:23:19;;;;;;;67.10;35.88;;;;;;;;;;5064999;28;20041;-78
2022/01/25 09:25:47;;;;;;;63.35;36.45;;;;;;;;;;5079606;28;20040;-78
2022/01/25 09:28:13;;;;;;;65.15;36.90;;;;;;;;;;5065983;28;20048;-79
2022/01/25 09:30:39;;;;;;;65.07;36.05;;;;;;;;;;5063131;28;20037;-78
2022/01/25 09:33:05;;;;;;;61.58;36.60;;;;;;;;;;5062502;28;20032;-77
2022/01/25 09:35:31;;;;;;;59.03;34.65;;;;;;;;;;5063193;28;20075;-77
2022/01/25 09:37:58;;;;;;;63.45;34.60;;;;;;;;;;5062660;28;20082;-76
2022/01/25 09:40:24;;;;;;;57.33;35.28;;;;;;;;;;5065052;28;20112;-78
2022/01/25 09:42:53;;;;;;;67.03;35.95;;;;;;;;;;5081411;28;20102;-78
2022/01/25 09:45:19;;;;;;;58.72;35.05;;;;;;;;;;5064208;28;20044;-79
2022/01/25 09:47:46;;;;;;;67.93;36.80;;;;;;;;;;5079441;28;20037;-78
2022/01/25 09:50:12;;;;;;;66.95;37.03;;;;;;;;;;5081796;28;20044;-78
2022/01/25 09:52:39;;;;;;;63.10;36.70;;;;;;;;;;5066055;28;20379;-78
2022/01/25 09:55:09;;;;;;;62.30;34.95;;;;;;;;;;5064033;28;20037;-78
2022/01/25 09:57:35;;;;;;;67.13;36.20;;;;;;;;;;5064400;28;20087;-79
2022/01/25 10:00:02;;;;;;;63.40;37.08;;;;;;;;;;5079864;28;20044;-78
2022/01/25 10:02:40;;;;;;;62.55;35.08;;;;;;;;;;5077748;28;20456;-78
2022/01/25 10:05:25;;;;;;;60.70;34.60;;;;;;;;;;5079422;28;20079;-77
2022/01/25 10:07:55;;;;;;;63.40;34.30;;;;;;;;;;5069775;28;20100;-78
2022/01/25 10:10:22;;;;;;;62.65;34.97;;;;;;;;;;5094372;28;20048;-77
2022/01/25 10:12:47;;;;;;;67.13;35.92;;;;;;;;;;5090796;28;20040;-79
2022/01/25 10:15:14;;;;;;;61.22;36.38;;;;;;;;;;5062364;28;20043;-77
2022/01/25 10:17:42;;;;;;;67.25;35.97;;;;;;;;;;5080948;28;20044;-79
2022/01/25 10:20:12;;;;;;;65.13;36.05;;;;;;;;;;5080580;28;20043;-78
2022/01/25 10:22:47;;;;;;;65.00;36.72;;;;;;;;;;5061487;28;20051;-77
2022/01/25 10:25:13;;;;;;;64.63;37.45;;;;;;;;;;5062137;28;20460;-78
2022/01/25 10:28:03;;;;;;;68.28;36.55;;;;;;;;;;5079392;28;20061;-78
2022/01/25 10:30:32;;;;;;;65.22;37.55;;;;;;;;;;5081630;28;20125;-79
2022/01/25 10:33:01;;;;;;;67.57;38.55;;;;;;;;;;5081502;28;20033;-80
2022/01/25 10:35:28;;;;;;;65.95;36.55;;;;;;;;;;5064333;28;20037;-80
2022/01/25 10:37:54;;;;;;;62.40;35.92;;;;;;;;;;5062095;28;20033;-77
2022/01/25 10:40:50;;;;;;;70.82;38.03;;;;;;;;;;5078627;28;20064;-79
2022/01/25 10:43:16;;;;;;;61.35;34.92;;;;;;;;;;5068076;28;20037;-79
2022/01/25 10:45:42;;;;;;;67.85;36.45;;;;;;;;;;5081262;28;20069;-78
2022/01/25 10:48:08;;;;;;;67.03;36.88;;;;;;;;;;5079412;28;20032;-79
2022/01/25 10:50:39;;;;;;;65.55;37.05;;;;;;;;;;5064174;28;20116;-79
2022/01/25 10:53:09;;;;;;;69.72;37.50;;;;;;;;;;5084754;28;20436;-77
2022/01/25 10:55:42;;;;;;;62.83;35.90;;;;;;;;;;5082433;28;20051;-78
2022/01/25 10:58:08;;;;;;;61.05;34.92;;;;;;;;;;5065026;28;20044;-78
2022/01/25 11:00:36;;;;;;;64.38;36.22;;;;;;;;;;5064469;28;20044;-78
2022/01/25 11:03:02;;;;;;;68.72;38.17;;;;;;;;;;5064198;28;20067;-79
2022/01/25 11:05:30;;;;;;;65.90;37.60;;;;;;;;;;5080588;28;20060;-79
2022/01/25 11:07:56;;;;;;;69.38;36.22;;;;;;;;;;5080844;28;20064;-79
2022/01/25 11:10:23;;;;;;;69.13;36.85;;;;;;;;;;5077204;28;20098;-78
2022/01/25 11:13:05;;;;;;;68.72;35.50;;;;;;;;;;5079319;28;20047;-79
2022/01/25 11:15:31;;;;;;;67.60;35.40;;;;;;;;;;5076988;28;20120;-79
2022/01/25 11:17:57;;;;;;;69.18;35.15;;;;;;;;;;5077658;28;20067;-79
2022/01/25 11:20:23;;;;;;;66.35;34.03;;;;;;;;;;5087358;28;20047;-79
2022/01/25 11:22:48;;;;;;;65.38;32.83;;;;;;;;;;5080228;28;20033;-79
2022/01/25 11:25:16;;;;;;;60.85;32.33;;;;;;;;;;5062628;28;20155;-80
2022/01/25 11:27:42;;;;;;;56.42;30.98;;;;;;;;;;5062151;28;20444;-79
2022/01/25 11:30:11;;;;;;;61.75;33.22;;;;;;;;;;5084172;28;20036;-79
2022/01/25 11:32:39;;;;;;;60.65;32.38;;;;;;;;;;5078795;28;20032;-78
2022/01/25 11:35:05;;;;;;;61.75;30.58;;;;;;;;;;5061627;28;20041;-78
2022/01/25 11:37:36;;;;;;;56.80;31.50;;;;;;;;;;5082767;28;20037;-77
2022/01/25 11:40:02;;;;;;;58.63;33.33;;;;;;;;;;5078027;28;20048;-77
2022/01/25 11:42:35;;;;;;;63.15;32.60;;;;;;;;;;5063245;28;20352;-76
2022/01/25 11:45:01;;;;;;;56.88;32.17;;;;;;;;;;5059333;28;20040;-78
2022/01/25 11:47:37;;;;;;;62.58;30.23;;;;;;;;;;5078448;28;20062;-78
2022/01/25 11:50:04;;;;;;;58.90;30.20;;;;;;;;;;5077815;28;20454;-78
2022/01/25 11:52:30;;;;;;;55.13;29.35;;;;;;;;;;5077510;28;20067;-78
2022/01/25 11:55:15;;;;;;;57.03;29.15;;;;;;;;;;5076968;28;20437;-78
2022/01/25 11:57:48;;;;;;;56.45;29.20;;;;;;;;;;5077571;28;20051;-79
2022/01/25 12:00:14;;;;;;;54.22;29.38;;;;;;;;;;5079703;28;20444;-79
2022/01/25 12:02:47;;;;;;;54.13;28.17;;;;;;;;;;5079151;28;20036;-79
2022/01/25 12:05:13;;;;;;;;;;;;;;;;;;5063347;28;20055;-79
2022/01/25 12:07:43;;;;;;;58.22;27.92;;;;;;;;;;5097478;28;19979;-79
2022/01/25 12:10:28;;;;;;;55.97;27.98;;;;;;;;;;5081888;28;20071;-79
2022/01/25 12:13:13;;;;;;;46.63;27.20;;;;;;;;;;5080820;28;20055;-81
2022/01/25 12:15:39;;;;;;;54.67;27.73;;;;;;;;;;5079513;28;20538;-78
2022/01/25 12:18:08;;;;;;;60.70;29.90;;;;;;;;;;5077580;28;20067;-78
2022/01/25 12:20:34;;;;;;;59.58;28.48;;;;;;;;;;5078378;28;20368;-78
2022/01/25 12:23:06;;;;;;;57.85;26.95;;;;;;;;;;5078924;28;20044;-78
2022/01/25 12:25:47;;;;;;;52.67;26.80;;;;;;;;;;5091040;28;20064;-78
2022/01/25 12:28:23;;;;;;;50.05;25.85;;;;;;;;;;5067577;28;20044;-79
2022/01/25 12:30:49;;;;;;;51.28;26.08;;;;;;;;;;5063961;28;20040;-79
2022/01/25 12:33:22;;;;;;;58.20;29.00;;;;;;;;;;5079036;28;20437;-78
2022/01/25 12:35:49;;;;;;;55.97;27.25;;;;;;;;;;5060045;28;20372;-78
2022/01/25 12:38:34;;;;;;;51.53;26.42;;;;;;;;;;5081685;28;20037;-79
2022/01/25 12:41:00;;;;;;;49.83;26.50;;;;;;;;;;5079642;28;20051;-78
2022/01/25 12:43:34;;;;;;;49.67;25.42;;;;;;;;;;5083732;28;20087;-78
2022/01/25 12:45:59;;;;;;;;;;;;;;;;;;5081134;28;20033;-77
2022/01/25 12:48:33;;;;;;;47.03;23.65;;;;;;;;;;5096663;28;19919;-79
2022/01/25 12:51:00;;;;;;;45.50;22.45;;;;;;;;;;5082512;28;20131;-78
2022/01/25 12:53:27;;;;;;;46.80;24.80;;;;;;;;;;5080708;28;20033;-77
2022/01/25 12:55:54;;;;;;;51.22;24.10;;;;;;;;;;5080193;28;20041;-77
2022/01/25 12:58:21;;;;;;;50.85;25.25;;;;;;;;;;5085083;28;20059;-78
2022/01/25 13:00:47;;;;;;;48.30;24.60;;;;;;;;;;5094900;28;20036;-80
2022/01/25 13:03:28;;;;;;;50.47;24.40;;;;;;;;;;5066797;28;20045;-77
2022/01/25 13:05:58;;;;;;;49.42;24.83;;;;;;;;;;5061602;28;20040;-79
2022/01/25 13:08:25;;;;;;;48.97;24.85;;;;;;;;;;5066433;28;20055;-79
2022/01/25 13:10:54;;;;;;;46.53;26.42;;;;;;;;;;5086762;28;20126;-79
2022/01/25 13:13:29;;;;;;;49.42;24.42;;;;;;;;;;5085184;28;20036;-78
2022/01/25 13:15:58;;;;;;;52.08;25.88;;;;;;;;;;5074212;28;20041;-79
2022/01/25 13:18:26;;;;;;;51.92;25.65;;;;;;;;;;5066916;28;20060;-79
2022/01/25 13:21:05;;;;;;;47.88;24.50;;;;;;;;;;5083607;28;20375;-78
2022/01/25 13:23:32;;;;;;;49.92;25.27;;;;;;;;;;5083162;28;20436;-77
2022/01/25 13:26:12;;;;;;;41.97;22.90;;;;;;;;;;5079501;28;20368;-79
2022/01/25 13:28:53;;;;;;;47.67;23.55;;;;;;;;;;5068386;28;20033;-78
2022/01/25 13:31:20;;;;;;;43.95;23.67;;;;;;;;;;5074625;28;20047;-79
2022/01/25 13:33:46;;;;;;;48.92;23.83;;;;;;;;;;5065382;28;20461;-79
2022/01/25 13:36:16;;;;;;;50.03;24.17;;;;;;;;;;5066020;28;20101;-79
2022/01/25 13:38:43;;;;;;;44.97;24.02;;;;;;;;;;5083132;28;20380;-79
2022/01/25 13:46:25;;;;;;;45.97;23.77;;;;;;;;;;5081822;28;20044;-78
2022/01/25 13:48:54;;;;;;;52.92;24.10;;;;;;;;;;5064297;28;20111;-78
2022/01/25 13:51:20;;;;;;;51.60;26.42;;;;;;;;;;5065717;28;20412;-77
2022/01/25 13:53:51;;;;;;;49.83;26.55;;;;;;;;;;5061615;28;20448;-76
2022/01/25 13:56:18;;;;;;;51.97;25.58;;;;;;;;;;5082117;28;20036;-78
2022/01/25 13:58:46;;;;;;;48.05;23.65;;;;;;;;;;5090027;28;20090;-79
2022/01/25 14:01:13;;;;;;;50.88;25.23;;;;;;;;;;5084993;28;20140;-78
2022/01/25 14:03:51;;;;;;;50.53;25.52;;;;;;;;;;5068125;28;20443;-78
2022/01/25 14:06:20;;;;;;;47.22;24.27;;;;;;;;;;5067415;28;20092;-78
2022/01/25 14:08:46;;;;;;;48.38;25.20;;;;;;;;;;5085730;28;20053;-79
2022/01/25 14:21:38;;;;;;;46.67;25.00;;;;;;;;;;5067019;28;20036;-78
2022/01/25 14:25:05;;;;;;;44.97;23.80;;;;;;;;;;5087986;28;20049;-79
2022/01/25 14:27:39;;;;;;;51.22;25.60;;;;;;;;;;5067796;28;20076;-78
2022/01/25 14:30:06;;;;;;;44.03;22.83;;;;;;;;;;5066873;28;20070;-78
2022/01/25 14:32:32;;;;;;;43.97;22.33;;;;;;;;;;5067623;28;20135;-78
2022/01/25 14:35:00;;;;;;;46.83;22.48;;;;;;;;;;5082083;28;20099;-79
2022/01/25 14:37:26;;;;;;;44.05;23.90;;;;;;;;;;5080877;28;20048;-79
2022/01/25 14:39:52;;;;;;;46.30;24.48;;;;;;;;;;5081553;28;20049;-77
2022/01/25 14:42:18;;;;;;;41.88;22.83;;;;;;;;;;5066163;28;20094;-77
2022/01/25 14:44:44;;;;;;;43.83;22.33;;;;;;;;;;5078909;28;20076;-78
2022/01/25 14:47:12;;;;;;;43.83;22.55;;;;;;;;;;5079703;28;20206;-78
2022/01/25 14:49:41;;;;;;;43.22;22.52;;;;;;;;;;5084000;28;20063;-79
2022/01/25 14:52:08;;;;;;;43.97;22.90;;;;;;;;;;5065086;28;20036;-79
2022/01/25 14:54:35;;;;;;;41.47;23.20;;;;;;;;;;5082658;28;20036;-80
2022/01/25 14:57:05;;;;;;;44.53;23.48;;;;;;;;;;5083008;28;20045;-79
2022/01/25 14:59:32;;;;;;;48.00;23.08;;;;;;;;;;5087874;28;20044;-78
2022/01/25 15:02:01;;;;;;;48.40;23.13;;;;;;;;;;5064461;28;20115;-78
2022/01/25 15:04:27;;;;;;;46.03;23.33;;;;;;;;;;5079010;28;20056;-78
2022/01/25 15:06:54;;;;;;;50.13;24.25;;;;;;;;;;5062397;28;20445;-78
2022/01/25 15:09:20;;;;;;;48.20;24.27;;;;;;;;;;5078175;28;20052;-79
2022/01/25 15:11:50;;;;;;;45.70;24.05;;;;;;;;;;5063473;28;20087;-78
2022/01/25 15:14:19;;;;;;;49.85;22.67;;;;;;;;;;5061395;28;20059;-78
2022/01/25 15:16:45;;;;;;;44.75;22.70;;;;;;;;;;5077996;28;20060;-77
2022/01/25 15:19:18;;;;;;;42.08;21.13;;;;;;;;;;5061335;28;20407;-77
2022/01/25 15:21:44;;;;;;;42.70;22.13;;;;;;;;;;5076491;28;20040;-77
2022/01/25 15:24:10;;;;;;;39.10;21.67;;;;;;;;;;5076410;28;20036;-77
2022/01/25 15:26:37;;;;;;;41.40;21.95;;;;;;;;;;5075027;28;20041;-77
2022/01/25 15:29:05;;;;;;;44.97;22.10;;;;;;;;;;5074987;28;20051;-77
2022/01/25 15:31:31;;;;;;;42.42;23.23;;;;;;;;;;5076337;28;20040;-77
2022/01/25 15:33:57;;;;;;;43.83;23.10;;;;;;;;;;5076167;28;20347;-76
2022/01/25 15:36:23;;;;;;;39.13;21.98;;;;;;;;;;5075685;28;20040;-77
2022/01/25 15:38:50;;;;;;;42.65;23.52;;;;;;;;;;5059625;28;20075;-77
2022/01/25 15:41:16;;;;;;;49.17;23.38;;;;;;;;;;5067962;28;20040;-77
2022/01/25 15:43:52;;;;;;;44.63;24.48;;;;;;;;;;5058665;28;20055;-78
2022/01/25 15:46:30;;;;;;;55.97;32.15;;;;;;;;;;5075569;28;20040;-77
2022/01/25 15:48:56;;;;;;;44.40;22.98;;;;;;;;;;5075963;28;20044;-77
2022/01/25 15:51:22;;;;;;;50.75;27.42;;;;;;;;;;5077448;28;20043;-77
2022/01/25 15:53:49;;;;;;;52.42;27.60;;;;;;;;;;5058691;28;20120;-77
2022/01/25 15:56:15;;;;;;;42.97;22.05;;;;;;;;;;5075897;28;20066;-77
2022/01/25 15:58:41;;;;;;;46.58;25.13;;;;;;;;;;5059513;28;20037;-77
2022/01/25 16:01:10;;;;;;;45.95;23.00;;;;;;;;;;5076307;28;20041;-76
2022/01/25 16:03:36;;;;;;;41.08;21.42;;;;;;;;;;5060104;28;20036;-77
2022/01/25 16:06:02;;;;;;;44.60;22.77;;;;;;;;;;5063551;28;20036;-77
2022/01/25 16:08:28;;;;;;;47.25;22.77;;;;;;;;;;5065750;28;20040;-77
2022/01/25 16:10:54;;;;;;;42.97;21.38;;;;;;;;;;5077944;28;20037;-77
2022/01/25 16:13:20;;;;;;;43.45;22.13;;;;;;;;;;5078100;28;20037;-79
2022/01/25 16:15:47;;;;;;;43.05;23.00;;;;;;;;;;5081066;28;20063;-77
2022/01/25 16:18:12;;;;;;;49.35;25.33;;;;;;;;;;5063979;28;20045;-77
2022/01/25 16:20:39;;;;;;;46.55;24.73;;;;;;;;;;5078881;28;20033;-79